createdAt,value
2018-12-18T00:00:19.519Z,2.60
2018-12-18T00:02:50.452Z,2.70
2018-12-18T00:05:25.160Z,2.60
2018-12-18T00:07:53.708Z,2.70
2018-12-18T00:10:24.124Z,2.70
2018-12-18T00:12:52.544Z,2.70
2018-12-18T00:15:21.030Z,2.70
2018-12-18T00:17:49.420Z,2.70
2018-12-18T00:20:17.853Z,2.70
2018-12-18T00:22:46.228Z,2.70
2018-12-18T00:25:14.657Z,2.60
2018-12-18T00:27:43.103Z,2.60
2018-12-18T00:30:11.564Z,2.60
2018-12-18T00:32:39.948Z,2.60
2018-12-18T00:35:08.490Z,2.60
2018-12-18T00:37:37.078Z,2.60
2018-12-18T00:40:06.011Z,2.70
2018-12-18T00:42:34.474Z,2.70
2018-12-18T00:45:02.847Z,2.60
2018-12-18T00:47:31.247Z,2.60
2018-12-18T00:49:59.648Z,2.60
2018-12-18T00:52:28.086Z,2.60
2018-12-18T00:54:56.498Z,2.60
2018-12-18T00:57:24.904Z,2.60
2018-12-18T00:59:53.292Z,2.60
2018-12-18T01:02:21.668Z,2.60
2018-12-18T01:04:51.009Z,2.60
2018-12-18T01:07:19.552Z,2.60
2018-12-18T01:09:48.016Z,2.60
2018-12-18T01:12:16.395Z,2.60
2018-12-18T01:14:44.822Z,2.60
2018-12-18T01:17:13.204Z,2.60
2018-12-18T01:19:41.687Z,2.60
2018-12-18T01:22:10.169Z,2.60
2018-12-18T01:24:38.659Z,2.70
2018-12-18T01:27:06.989Z,2.70
2018-12-18T01:29:35.375Z,2.70
2018-12-18T01:32:03.834Z,2.70
2018-12-18T01:34:32.264Z,2.70
2018-12-18T01:37:00.692Z,2.70
2018-12-18T01:39:29.143Z,2.70
2018-12-18T01:41:57.533Z,2.70
2018-12-18T01:44:25.947Z,2.70
2018-12-18T01:46:54.380Z,2.70
2018-12-18T01:49:22.743Z,2.70
2018-12-18T01:51:51.155Z,2.70
2018-12-18T01:54:19.687Z,2.70
2018-12-18T01:56:48.188Z,2.70
2018-12-18T01:59:16.663Z,2.60
2018-12-18T02:01:45.043Z,2.60
2018-12-18T02:04:13.424Z,2.50
2018-12-18T02:06:42.058Z,2.30
2018-12-18T02:09:11.347Z,2.20
2018-12-18T02:11:39.686Z,2.10
2018-12-18T02:14:08.141Z,2.00
2018-12-18T02:16:36.571Z,1.90
2018-12-18T02:19:05.073Z,1.90
2018-12-18T02:21:33.465Z,1.90
2018-12-18T02:24:01.878Z,1.90
2018-12-18T02:26:30.290Z,1.90
2018-12-18T02:28:58.840Z,1.90
2018-12-18T02:31:27.289Z,2.00
2018-12-18T02:33:55.925Z,2.00
2018-12-18T02:36:24.371Z,2.00
2018-12-18T02:38:52.778Z,2.00
2018-12-18T02:41:21.193Z,2.00
2018-12-18T02:43:49.613Z,2.00
2018-12-18T02:46:18.053Z,2.00
2018-12-18T02:48:46.404Z,2.00
2018-12-18T02:51:14.877Z,2.00
2018-12-18T02:53:43.261Z,2.00
2018-12-18T02:56:11.670Z,2.00
2018-12-18T02:58:40.100Z,1.90
2018-12-18T03:01:08.501Z,1.90
2018-12-18T03:03:36.864Z,1.90
2018-12-18T03:06:05.298Z,1.80
2018-12-18T03:08:33.706Z,1.70
2018-12-18T03:11:02.113Z,1.70
2018-12-18T03:13:30.531Z,1.70
2018-12-18T03:15:59.157Z,1.70
2018-12-18T03:18:27.545Z,1.70
2018-12-18T03:20:55.977Z,1.60
2018-12-18T03:23:24.431Z,1.60
2018-12-18T03:25:52.927Z,1.70
2018-12-18T03:28:21.327Z,1.70
2018-12-18T03:30:49.726Z,1.70
2018-12-18T03:33:18.122Z,1.80
2018-12-18T03:35:46.581Z,1.80
2018-12-18T03:38:14.988Z,1.80
2018-12-18T03:40:43.376Z,1.80
2018-12-18T03:43:11.766Z,1.80
2018-12-18T03:45:40.262Z,1.70
2018-12-18T03:48:08.679Z,1.80
2018-12-18T03:50:37.165Z,1.80
2018-12-18T03:53:05.672Z,1.80
2018-12-18T03:55:34.181Z,1.80
2018-12-18T03:58:02.553Z,1.80
2018-12-18T04:00:30.935Z,1.80
2018-12-18T04:02:59.353Z,1.70
2018-12-18T04:05:27.747Z,1.70
2018-12-18T04:07:56.311Z,1.60
2018-12-18T04:10:24.699Z,1.60
2018-12-18T04:12:53.159Z,1.50
2018-12-18T04:15:21.578Z,1.50
2018-12-18T04:17:49.981Z,1.50
2018-12-18T04:20:18.346Z,1.30
2018-12-18T04:22:46.791Z,1.30
2018-12-18T04:25:15.180Z,1.20
2018-12-18T04:27:43.604Z,1.20
2018-12-18T04:30:11.974Z,1.20
2018-12-18T04:32:40.409Z,1.20
2018-12-18T04:35:08.823Z,1.10
2018-12-18T04:37:37.225Z,1.10
2018-12-18T04:40:06.292Z,1.10
2018-12-18T04:42:34.782Z,1.00
2018-12-18T04:45:03.398Z,0.90
2018-12-18T04:47:31.910Z,0.90
2018-12-18T04:50:00.266Z,0.90
2018-12-18T04:52:28.696Z,0.90
2018-12-18T04:54:57.075Z,0.80
2018-12-18T04:57:25.430Z,0.80
2018-12-18T04:59:53.920Z,0.90
2018-12-18T05:02:22.380Z,0.90
2018-12-18T05:04:50.831Z,0.90
2018-12-18T05:07:19.349Z,0.90
2018-12-18T05:09:47.835Z,0.80
2018-12-18T05:12:16.221Z,0.80
2018-12-18T05:14:44.691Z,0.70
2018-12-18T05:17:13.134Z,0.70
2018-12-18T05:19:41.618Z,0.60
2018-12-18T05:22:10.013Z,0.60
2018-12-18T05:24:38.486Z,0.60
2018-12-18T05:27:06.849Z,0.60
2018-12-18T05:29:35.227Z,0.60
2018-12-18T05:32:10.097Z,0.50
2018-12-18T05:34:38.506Z,0.50
2018-12-18T05:37:06.905Z,0.50
2018-12-18T05:39:35.308Z,0.40
2018-12-18T05:42:03.787Z,0.50
2018-12-18T05:44:32.168Z,0.50
2018-12-18T05:47:00.531Z,0.50
2018-12-18T05:49:28.937Z,0.40
2018-12-18T05:51:57.331Z,0.50
2018-12-18T05:54:25.857Z,0.50
2018-12-18T05:56:54.323Z,0.50
2018-12-18T05:59:22.955Z,0.40
2018-12-18T06:01:51.369Z,0.50
2018-12-18T06:04:19.713Z,0.40
2018-12-18T06:06:48.209Z,0.40
2018-12-18T06:09:16.713Z,0.40
2018-12-18T06:11:45.193Z,0.40
2018-12-18T06:14:13.573Z,0.50
2018-12-18T06:16:42.036Z,0.50
2018-12-18T06:19:10.539Z,0.60
2018-12-18T06:21:39.173Z,0.50
2018-12-18T06:24:07.674Z,0.50
2018-12-18T06:26:36.107Z,0.50
2018-12-18T06:29:04.624Z,0.40
2018-12-18T06:31:33.069Z,0.40
2018-12-18T06:34:01.467Z,0.50
2018-12-18T06:36:29.916Z,0.40
2018-12-18T06:38:58.290Z,0.40
2018-12-18T06:41:26.675Z,0.40
2018-12-18T06:43:55.199Z,0.40
2018-12-18T06:46:24.392Z,0.50
2018-12-18T06:48:52.827Z,0.40
2018-12-18T06:51:21.275Z,0.40
2018-12-18T06:53:49.702Z,0.50
2018-12-18T06:56:18.118Z,0.50
2018-12-18T06:58:46.587Z,0.40
2018-12-18T07:01:15.019Z,0.50
2018-12-18T07:03:43.407Z,0.50
2018-12-18T07:06:11.859Z,0.50
2018-12-18T07:08:40.280Z,0.50
2018-12-18T07:11:08.752Z,0.50
2018-12-18T07:13:37.233Z,0.60
2018-12-18T07:16:05.641Z,0.50
2018-12-18T07:18:34.107Z,0.50
2018-12-18T07:21:02.546Z,0.50
2018-12-18T07:23:30.938Z,0.50
2018-12-18T07:25:59.351Z,0.50
2018-12-18T07:28:27.785Z,0.40
2018-12-18T07:30:56.171Z,0.40
2018-12-18T07:33:24.571Z,0.40
2018-12-18T07:35:53.001Z,0.40
2018-12-18T07:38:21.535Z,0.40
2018-12-18T07:40:49.971Z,0.40
2018-12-18T07:43:18.565Z,0.40
2018-12-18T07:45:47.169Z,0.50
2018-12-18T07:48:22.449Z,0.50
2018-12-18T07:50:50.885Z,0.50
2018-12-18T07:53:19.507Z,0.50
2018-12-18T07:55:48.096Z,0.60
2018-12-18T07:58:16.652Z,0.60
2018-12-18T08:00:45.168Z,0.60
2018-12-18T08:03:13.545Z,0.70
2018-12-18T08:05:42.003Z,0.60
2018-12-18T08:08:10.408Z,0.70
2018-12-18T08:10:38.801Z,0.80
2018-12-18T08:13:07.213Z,0.70
2018-12-18T08:15:35.683Z,0.70
2018-12-18T08:18:04.109Z,0.60
2018-12-18T08:20:32.566Z,0.60
2018-12-18T08:23:01.050Z,0.60
2018-12-18T08:25:29.441Z,0.70
2018-12-18T08:27:57.881Z,0.80
2018-12-18T08:30:26.387Z,0.90
2018-12-18T08:32:54.826Z,0.90
2018-12-18T08:35:23.285Z,0.80
2018-12-18T08:37:52.086Z,0.80
2018-12-18T08:40:20.467Z,0.80
2018-12-18T08:42:48.847Z,0.90
2018-12-18T08:45:17.249Z,0.90
2018-12-18T08:47:45.713Z,0.90
2018-12-18T08:50:14.145Z,1.00
2018-12-18T08:52:42.753Z,1.10
2018-12-18T08:55:11.205Z,1.30
2018-12-18T08:57:39.663Z,1.50
2018-12-18T09:00:09.176Z,1.50
2018-12-18T09:02:37.587Z,1.60
2018-12-18T09:05:06.619Z,1.70
2018-12-18T09:07:35.034Z,1.60
2018-12-18T09:10:04.063Z,1.40
2018-12-18T09:12:32.478Z,1.30
2018-12-18T09:15:02.867Z,1.40
2018-12-18T09:17:36.591Z,1.50
2018-12-18T09:20:05.159Z,1.50
2018-12-18T09:22:33.618Z,1.40
2018-12-18T09:25:02.138Z,1.40
2018-12-18T09:27:30.604Z,1.50
2018-12-18T09:29:59.651Z,1.60
2018-12-18T09:32:28.102Z,1.80
2018-12-18T09:34:56.588Z,1.60
2018-12-18T09:37:25.099Z,1.80
2018-12-18T09:39:53.492Z,1.90
2018-12-18T09:42:27.400Z,2.10
2018-12-18T09:44:55.790Z,2.20
2018-12-18T09:47:24.254Z,2.40
2018-12-18T09:49:52.807Z,2.50
2018-12-18T09:52:21.162Z,2.70
2018-12-18T09:54:49.547Z,3.00
2018-12-18T09:57:23.205Z,2.90
2018-12-18T09:59:51.612Z,2.40
2018-12-18T10:02:20.294Z,2.60
2018-12-18T10:04:48.703Z,2.50
2018-12-18T10:07:17.088Z,2.60
2018-12-18T10:09:45.498Z,2.70
2018-12-18T10:12:15.932Z,2.70
2018-12-18T10:14:44.326Z,2.70
2018-12-18T10:17:12.798Z,2.80
2018-12-18T10:19:41.236Z,2.60
2018-12-18T10:22:09.691Z,2.30
2018-12-18T10:24:38.067Z,2.20
2018-12-18T10:27:06.471Z,2.40
2018-12-18T10:29:34.838Z,2.20
2018-12-18T10:32:03.243Z,2.30
2018-12-18T10:34:31.614Z,2.30
2018-12-18T10:37:00.090Z,2.30
2018-12-18T10:39:28.474Z,2.20
2018-12-18T10:41:57.794Z,2.10
2018-12-18T10:44:26.236Z,2.30
2018-12-18T10:46:54.672Z,2.50
2018-12-18T10:49:23.061Z,2.70
2018-12-18T10:51:51.437Z,2.70
2018-12-18T10:54:20.039Z,2.50
2018-12-18T10:56:48.498Z,2.80
2018-12-18T10:59:16.890Z,2.70
2018-12-18T11:01:47.524Z,2.80
2018-12-18T11:04:16.152Z,2.90
2018-12-18T11:06:44.563Z,3.00
2018-12-18T11:09:12.959Z,2.60
2018-12-18T11:11:41.443Z,2.70
2018-12-18T11:14:09.842Z,2.90
2018-12-18T11:16:38.278Z,2.80
2018-12-18T11:19:06.728Z,2.70
2018-12-18T11:21:35.135Z,2.80
2018-12-18T11:24:03.861Z,2.80
2018-12-18T11:26:32.294Z,2.60
2018-12-18T11:29:00.760Z,2.50
2018-12-18T11:31:29.258Z,2.50
2018-12-18T11:33:57.707Z,2.20
2018-12-18T11:36:26.203Z,2.20
2018-12-18T11:38:54.695Z,2.20
2018-12-18T11:41:23.124Z,2.20
2018-12-18T11:43:52.471Z,2.30
2018-12-18T11:46:20.874Z,2.30
2018-12-18T11:48:49.265Z,2.50
2018-12-18T11:51:17.682Z,2.50
2018-12-18T11:53:46.035Z,2.70
2018-12-18T11:56:14.473Z,2.80
2018-12-18T11:58:42.871Z,2.80
2018-12-18T12:01:11.797Z,2.80
2018-12-18T12:03:40.177Z,2.80
2018-12-18T12:06:08.611Z,2.70
2018-12-18T12:08:37.099Z,2.70
2018-12-18T12:11:05.548Z,2.70
2018-12-18T12:13:34.074Z,2.70
2018-12-18T12:16:02.632Z,2.60
2018-12-18T12:18:31.134Z,2.70
2018-12-18T12:20:59.576Z,2.80
2018-12-18T12:23:28.128Z,3.00
2018-12-18T12:25:56.602Z,3.00
2018-12-18T12:28:25.706Z,3.00
2018-12-18T12:30:54.125Z,3.10
2018-12-18T12:33:22.548Z,3.00
2018-12-18T12:35:50.936Z,2.90
2018-12-18T12:38:19.385Z,2.90
2018-12-18T12:40:47.916Z,3.00
2018-12-18T12:43:16.295Z,2.80
2018-12-18T12:45:44.790Z,2.90
2018-12-18T12:48:13.270Z,2.90
2018-12-18T12:50:41.784Z,2.90
2018-12-18T12:53:10.545Z,2.90
2018-12-18T12:55:38.975Z,2.90
2018-12-18T12:58:07.372Z,2.90
2018-12-18T13:00:35.829Z,3.00
2018-12-18T13:03:04.316Z,3.00
2018-12-18T13:05:32.784Z,3.10
2018-12-18T13:08:01.163Z,3.10
2018-12-18T13:10:29.545Z,3.20
2018-12-18T13:12:58.001Z,3.20
2018-12-18T13:15:26.374Z,3.20
2018-12-18T13:17:54.771Z,3.30
2018-12-18T13:20:23.211Z,3.20
2018-12-18T13:22:51.703Z,3.30
2018-12-18T13:25:20.114Z,3.30
2018-12-18T13:27:48.462Z,3.50
2018-12-18T13:30:16.839Z,3.60
2018-12-18T13:32:45.424Z,3.60
2018-12-18T13:35:13.906Z,3.70
2018-12-18T13:37:42.508Z,3.80
2018-12-18T13:40:11.011Z,3.80
2018-12-18T13:42:39.586Z,3.80
2018-12-18T13:45:08.155Z,3.90
2018-12-18T13:47:36.554Z,3.80
2018-12-18T13:50:05.240Z,3.70
2018-12-18T13:52:33.618Z,3.80
2018-12-18T13:55:02.043Z,3.70
2018-12-18T13:57:30.414Z,3.80
2018-12-18T13:59:58.892Z,3.80
2018-12-18T14:02:27.307Z,3.80
2018-12-18T14:04:56.413Z,3.70
2018-12-18T14:07:24.954Z,3.70
2018-12-18T14:09:53.495Z,3.70
2018-12-18T14:12:23.212Z,3.50
2018-12-18T14:14:51.914Z,3.50
2018-12-18T14:17:20.489Z,3.50
2018-12-18T14:19:49.010Z,3.40
2018-12-18T14:22:17.575Z,3.30
2018-12-18T14:24:46.052Z,3.30
2018-12-18T14:27:14.526Z,3.20
2018-12-18T14:29:42.910Z,3.10
2018-12-18T14:32:11.264Z,3.10
2018-12-18T14:34:39.747Z,2.90
2018-12-18T14:37:08.220Z,2.80
2018-12-18T14:39:36.634Z,2.90
2018-12-18T14:42:05.128Z,2.80
2018-12-18T14:44:33.534Z,2.80
2018-12-18T14:47:01.929Z,2.80
2018-12-18T14:49:30.306Z,2.80
2018-12-18T14:51:58.694Z,2.80
2018-12-18T14:54:27.371Z,2.80
2018-12-18T14:56:55.848Z,2.80
2018-12-18T14:59:24.845Z,2.90
2018-12-18T15:01:53.336Z,2.90
2018-12-18T15:04:22.005Z,2.90
2018-12-18T15:06:50.420Z,2.90
2018-12-18T15:09:18.847Z,2.90
2018-12-18T15:11:47.253Z,2.90
2018-12-18T15:14:15.671Z,2.90
2018-12-18T15:16:44.896Z,2.80
2018-12-18T15:19:13.708Z,2.80
2018-12-18T15:21:42.119Z,2.70
2018-12-18T15:24:10.555Z,2.60
2018-12-18T15:26:38.967Z,2.50
2018-12-18T15:29:07.414Z,2.50
2018-12-18T15:31:35.869Z,2.40
2018-12-18T15:34:04.765Z,2.40
2018-12-18T15:36:33.243Z,2.40
2018-12-18T15:39:01.653Z,2.30
2018-12-18T15:41:30.115Z,2.20
2018-12-18T15:43:58.606Z,2.20
2018-12-18T15:46:27.423Z,2.00
2018-12-18T15:48:55.888Z,2.00
2018-12-18T15:51:24.350Z,2.00
2018-12-18T15:53:52.828Z,1.90
2018-12-18T15:56:21.329Z,1.90
2018-12-18T15:58:49.835Z,1.80
2018-12-18T16:01:18.242Z,1.80
2018-12-18T16:03:46.692Z,1.70
2018-12-18T16:06:15.117Z,1.80
2018-12-18T16:08:43.493Z,1.70
2018-12-18T16:11:11.935Z,1.80
2018-12-18T16:13:40.419Z,1.80
2018-12-18T16:16:09.392Z,1.80
2018-12-18T16:18:37.953Z,1.90
2018-12-18T16:21:06.804Z,1.90
2018-12-18T16:23:35.352Z,1.90
2018-12-18T16:26:03.935Z,1.90
2018-12-18T16:28:32.375Z,1.90
2018-12-18T16:31:00.801Z,1.90
2018-12-18T16:33:29.290Z,2.00
2018-12-18T16:35:57.736Z,2.00
2018-12-18T16:38:26.438Z,2.10
2018-12-18T16:40:54.850Z,2.10
2018-12-18T16:43:23.349Z,2.10
2018-12-18T16:45:51.713Z,2.10
2018-12-18T16:48:20.153Z,2.10
2018-12-18T16:50:48.641Z,2.20
2018-12-18T16:53:17.022Z,2.20
2018-12-18T16:55:45.698Z,2.20
2018-12-18T16:58:14.283Z,2.20
2018-12-18T17:00:42.702Z,2.20
2018-12-18T17:03:11.150Z,2.20
2018-12-18T17:05:39.569Z,2.20
2018-12-18T17:08:07.950Z,2.10
2018-12-18T17:10:36.434Z,2.10
2018-12-18T17:13:04.871Z,2.10
2018-12-18T17:15:33.257Z,2.10
2018-12-18T17:18:01.700Z,2.10
2018-12-18T17:20:30.150Z,2.10
2018-12-18T17:22:58.558Z,2.10
2018-12-18T17:25:27.080Z,2.10
2018-12-18T17:27:55.515Z,2.10
2018-12-18T17:30:23.869Z,2.10
2018-12-18T17:32:52.333Z,2.00
2018-12-18T17:35:20.854Z,2.00
2018-12-18T17:37:49.254Z,2.00
2018-12-18T17:40:17.717Z,1.90
2018-12-18T17:42:46.266Z,1.90
2018-12-18T17:45:14.672Z,1.90
2018-12-18T17:47:43.115Z,1.90
2018-12-18T17:50:11.605Z,1.90
2018-12-18T17:52:40.037Z,1.90
2018-12-18T17:55:08.470Z,1.90
2018-12-18T17:57:36.898Z,2.00
2018-12-18T18:00:05.459Z,1.90
2018-12-18T18:02:33.929Z,1.90
2018-12-18T18:05:02.429Z,1.90
2018-12-18T18:07:30.866Z,1.90
2018-12-18T18:09:59.343Z,1.80
2018-12-18T18:12:30.028Z,1.80
2018-12-18T18:14:58.269Z,1.90
2018-12-18T18:17:26.956Z,1.80
2018-12-18T18:19:55.494Z,1.80
2018-12-18T18:22:23.920Z,1.80
2018-12-18T18:24:52.411Z,1.70
2018-12-18T18:27:20.862Z,1.60
2018-12-18T18:29:49.336Z,1.70
2018-12-18T18:32:17.795Z,1.60
2018-12-18T18:34:46.199Z,1.60
2018-12-18T18:37:14.642Z,1.60
2018-12-18T18:39:43.132Z,1.60
2018-12-18T18:42:11.675Z,1.60
2018-12-18T18:44:40.214Z,1.60
2018-12-18T18:47:08.631Z,1.60
2018-12-18T18:49:37.184Z,1.60
2018-12-18T18:52:05.792Z,1.70
2018-12-18T18:54:34.235Z,1.70
2018-12-18T18:57:02.703Z,1.70
2018-12-18T18:59:31.181Z,1.70
2018-12-18T19:01:59.641Z,1.70
2018-12-18T19:04:28.222Z,1.70
2018-12-18T19:06:56.617Z,1.70
2018-12-18T19:09:25.091Z,1.60
2018-12-18T19:11:53.490Z,1.60
2018-12-18T19:14:22.073Z,1.60
2018-12-18T19:16:50.559Z,1.70
2018-12-18T19:19:19.062Z,1.60
2018-12-18T19:21:47.500Z,1.60
2018-12-18T19:24:16.020Z,1.60
2018-12-18T19:26:44.582Z,1.60
2018-12-18T19:29:13.043Z,1.60
2018-12-18T19:31:41.514Z,1.60
2018-12-18T19:34:09.923Z,1.60
2018-12-18T19:36:38.659Z,1.60
2018-12-18T19:39:08.763Z,1.70
2018-12-18T19:41:37.542Z,1.60
2018-12-18T19:44:05.963Z,1.60
2018-12-18T19:46:34.382Z,1.60
2018-12-18T19:49:02.849Z,1.60
2018-12-18T19:51:31.268Z,1.60
2018-12-18T19:53:59.699Z,1.60
2018-12-18T19:56:28.172Z,1.60
2018-12-18T19:58:56.677Z,1.60
2018-12-18T20:01:25.128Z,1.50
2018-12-18T20:03:53.510Z,1.50
2018-12-18T20:06:22.036Z,1.50
2018-12-18T20:08:50.558Z,1.50
2018-12-18T20:11:18.968Z,1.50
2018-12-18T20:13:47.417Z,1.60
2018-12-18T20:16:15.840Z,1.60
2018-12-18T20:18:44.453Z,1.60
2018-12-18T20:21:12.938Z,1.50
2018-12-18T20:23:41.437Z,1.50
2018-12-18T20:26:10.585Z,1.50
2018-12-18T20:28:39.073Z,1.50
2018-12-18T20:31:07.462Z,1.60
2018-12-18T20:33:35.941Z,1.50
2018-12-18T20:36:04.345Z,1.60
2018-12-18T20:38:32.785Z,1.50
2018-12-18T20:41:01.203Z,1.60
2018-12-18T20:43:29.600Z,1.60
2018-12-18T20:45:58.275Z,1.60
2018-12-18T20:48:26.717Z,1.60
2018-12-18T20:50:55.201Z,1.60
2018-12-18T20:53:23.663Z,1.60
2018-12-18T20:55:52.129Z,1.60
2018-12-18T20:58:20.536Z,1.60
2018-12-18T21:00:48.996Z,1.60
2018-12-18T21:03:17.386Z,1.60
2018-12-18T21:05:45.832Z,1.60
2018-12-18T21:08:14.242Z,1.60
2018-12-18T21:10:42.682Z,1.50
2018-12-18T21:13:16.416Z,1.50
2018-12-18T21:15:45.013Z,1.50
2018-12-18T21:18:13.449Z,1.60
2018-12-18T21:20:41.998Z,1.60
2018-12-18T21:23:10.434Z,1.60
2018-12-18T21:25:38.894Z,1.50
2018-12-18T21:28:07.332Z,1.50
2018-12-18T21:30:35.881Z,1.50
2018-12-18T21:33:04.550Z,1.50
2018-12-18T21:35:32.990Z,1.50
2018-12-18T21:38:01.420Z,1.50
2018-12-18T21:40:29.861Z,1.50
2018-12-18T21:42:58.260Z,1.50
2018-12-18T21:45:26.790Z,1.50
2018-12-18T21:47:55.259Z,1.40
2018-12-18T21:50:23.777Z,1.40
2018-12-18T21:52:52.158Z,1.30
2018-12-18T21:55:20.609Z,1.40
2018-12-18T21:57:49.030Z,1.30
2018-12-18T22:00:17.524Z,1.40
2018-12-18T22:02:45.977Z,1.40
2018-12-18T22:05:14.481Z,1.40
2018-12-18T22:07:42.953Z,1.50
2018-12-18T22:10:11.352Z,1.50
2018-12-18T22:12:39.917Z,1.50
2018-12-18T22:15:08.582Z,1.50
2018-12-18T22:17:37.175Z,1.50
2018-12-18T22:20:06.352Z,1.50
2018-12-18T22:22:34.797Z,1.50
2018-12-18T22:25:03.323Z,1.50
2018-12-18T22:27:31.799Z,1.50
2018-12-18T22:30:00.203Z,1.50
2018-12-18T22:32:28.617Z,1.50
2018-12-18T22:34:57.095Z,1.40
2018-12-18T22:37:25.491Z,1.40
2018-12-18T22:39:53.906Z,1.40
2018-12-18T22:42:22.342Z,1.40
2018-12-18T22:44:50.875Z,1.40
2018-12-18T22:47:19.278Z,1.30
2018-12-18T22:49:47.673Z,1.30
2018-12-18T22:52:16.217Z,1.40
2018-12-18T22:54:44.753Z,1.40
2018-12-18T22:57:13.614Z,1.30
2018-12-18T22:59:42.039Z,1.30
2018-12-18T23:02:16.256Z,1.30
2018-12-18T23:04:45.992Z,1.30
2018-12-18T23:07:14.726Z,1.30
2018-12-18T23:09:43.122Z,1.30
2018-12-18T23:12:11.566Z,1.30
2018-12-18T23:14:40.325Z,1.30
2018-12-18T23:17:08.734Z,1.20
2018-12-18T23:19:37.138Z,1.20
2018-12-18T23:22:05.576Z,1.20
2018-12-18T23:24:35.204Z,1.20
2018-12-18T23:27:03.862Z,1.10
2018-12-18T23:29:32.273Z,1.10
2018-12-18T23:32:00.682Z,1.10
2018-12-18T23:34:32.962Z,1.00
2018-12-18T23:36:59.502Z,1.00
2018-12-18T23:39:27.899Z,0.90
2018-12-18T23:41:56.311Z,0.90
2018-12-18T23:44:24.766Z,0.90
2018-12-18T23:46:53.242Z,0.90
2018-12-18T23:49:21.946Z,0.90
2018-12-18T23:51:50.639Z,0.90
2018-12-18T23:54:19.442Z,0.90
2018-12-18T23:56:47.820Z,0.90
2018-12-18T23:59:16.378Z,0.80
